This is the latest recevied weather packets stored in our database for station/object SP8PRZ-1. If no packets are shown the sender has not sent any weather packets the latest 10 day(s).
| Time | Temp. | Humidity | Pressure | Rain* | Wind** | Luminosity | Snow |
|---|---|---|---|---|---|---|---|
| 1788061882 | 51° F | 99% | 768.1 mmHg | - | - | - | - |
| 1788059481 | 51° F | 98% | 767.9 mmHg | - | - | - | - |
| 1788057079 | 52° F | 98% | 767.8 mmHg | - | - | - | - |
| 1788054677 | 52° F | 99% | 767.8 mmHg | - | - | - | - |
| 1788052275 | 53° F | 99% | 767.8 mmHg | - | - | - | - |
| 1788049873 | 54° F | 99% | 767.7 mmHg | - | - | - | - |
| 1788047471 | 54° F | 99% | 767.6 mmHg | - | - | - | - |
| 1788045070 | 54° F | 98% | 767.5 mmHg | - | - | - | - |
| 1788042668 | 54° F | 98% | 767.5 mmHg | - | - | - | - |
| 1788040282 | 55° F | 97% | 767.5 mmHg | - | - | - | - |
| 1788037880 | 56° F | 98% | 767.6 mmHg | - | - | - | - |
| 1788035479 | 56° F | 98% | 767.7 mmHg | - | - | - | - |
| 1788033077 | 57° F | 97% | 767.5 mmHg | - | - | - | - |
| 1788030675 | 58° F | 97% | 767.4 mmHg | - | - | - | - |
| 1788028274 | 59° F | 97% | 767.5 mmHg | - | - | - | - |
| 1788025872 | 60° F | 96% | 767.2 mmHg | - | - | - | - |
| 1788023470 | 62° F | 95% | 767 mmHg | - | - | - | - |
| 1788021068 | 65° F | 92% | 766.8 mmHg | - | - | - | - |
| 1788019671 | 66° F | 94% | 766.9 mmHg | - | - | - | - |
| 1788017269 | 67° F | 96% | 766.9 mmHg | - | - | - | - |
| 1788014867 | 67° F | 93% | 766.7 mmHg | - | - | - | - |
| 1788012466 | 65° F | 96% | 766.8 mmHg | - | - | - | - |
| 1788010063 | 63° F | 97% | 767 mmHg | - | - | - | - |
| 1788007662 | 63° F | 95% | 766.8 mmHg | - | - | - | - |
| 1788005260 | 63° F | 94% | 766.6 mmHg | - | - | - | - |
* Rain since midnight (hover to see other rain measurements)
** Current wind speed in m/s (hover to see current wind gust speed)